Aérodrome :
LOGIN :

S'inscrire | Disclaimer

   EN    FR    IT 

 










Légende :    VFR   VFR Marginal   IFR   IFR Intensif   IFR Très Intensif
Visi : 
Plafond : 
>= 8 km
>= 3000ft
5 à 8 km
1000 à 3000 ft
1500m à 5 km
500 à 1000 ft
800 à 1500m
200 à 500 ft
< 800m
< 200 ft
Symboles :   Orages  Brouillard  Fortes neiges  Fortes précipitations  Vent > 20 kt
SIGMETs :   Divers  Orages  Givrage  Turbulence  Onde Orograph.  Cendres Volcan.






- Altitude de l'aérodrome : 9 ft
- Code IATA : MIR


DTMB - Habib Bourguliba Int. Monastir

DERNIER METAR :
  • 260000Z 19005KT 8000 NSC 14/14 Q1020 NOSIG

METARs EXPIRÉS :
  • 252330Z 17004KT 8000 NSC 15/15 Q1020 NOSIG
  • 252300Z 18005KT 8000 NSC 15/15 Q1020 NOSIG
  • 252230Z 17005KT 8000 NSC 15/15 Q1021 NOSIG
  • 252200Z 17005KT 8000 NSC 15/15 Q1021 NOSIG
  • 252130Z 18005KT 8000 FEW026 15/15 Q1021 NOSIG

TAF TAF DTMB
Valide du 26 à 00h jusqu'au 27 à 00h UTC


252300Z 2600/2624 19005KT 8000 SCT016
PROB30 2600/2603 4000 BR FEW014
PROB40 2603/2608 0800 FG
BECMG 2610/2612 13010KT



MET'MAP, la Météo Aéronautique d'un coup d'oeil ! - Copyright ORBIFLY Décembre 2007 - Disclaimer

ORBIFLY MET'MAP TEAM :

Programmation & Développement : Alexandra Zaïnal
Sur une idée originale de : Baudouin d'Aumeries
Assistance à la programmation : Marc-Olivier Méhu
Soutien technique & logistique : Manuel Goepfert

Contact : metmap@orbifly.com




SOURCES & CREDITS :

   NOAA